createdAt,value
2023-03-06T00:01:48.927Z,57.40
2023-03-06T00:05:16.356Z,58.10
2023-03-06T00:08:46.426Z,56.50
2023-03-06T00:12:14.161Z,61.40
2023-03-06T00:15:41.810Z,56.70
2023-03-06T00:19:09.167Z,52.10
2023-03-06T00:22:36.369Z,56.50
2023-03-06T00:26:03.629Z,42.30
2023-03-06T00:29:32.448Z,43.60
2023-03-06T00:32:59.377Z,48.50
2023-03-06T00:36:26.627Z,67.20
2023-03-06T00:39:56.817Z,72.20
2023-03-06T00:43:23.925Z,49.60
2023-03-06T00:46:51.963Z,57.80
2023-03-06T00:50:19.222Z,50.30
2023-03-06T00:53:46.089Z,46.80
2023-03-06T00:57:13.510Z,46.70
2023-03-06T01:00:41.606Z,48.60
2023-03-06T01:04:09.495Z,42.60
2023-03-06T01:07:37.770Z,48.10
2023-03-06T01:11:05.938Z,47.60
2023-03-06T01:14:33.822Z,44.80
2023-03-06T01:18:01.883Z,46.50
2023-03-06T01:21:29.448Z,47.40
2023-03-06T01:24:56.218Z,42.30
2023-03-06T01:28:24.806Z,42.40
2023-03-06T01:31:53.540Z,46.00
2023-03-06T01:35:21.048Z,47.50
2023-03-06T01:38:48.907Z,41.50
2023-03-06T01:42:19.574Z,43.90
2023-03-06T01:46:25.253Z,40.70
2023-03-06T01:49:52.463Z,42.80
2023-03-06T01:53:23.002Z,45.50
2023-03-06T01:56:54.466Z,43.40
2023-03-06T02:00:26.750Z,46.00
2023-03-06T02:03:55.041Z,44.30
2023-03-06T02:07:25.802Z,43.00
2023-03-06T02:11:03.753Z,47.50
2023-03-06T02:14:31.602Z,52.40
2023-03-06T02:17:59.059Z,46.30
2023-03-06T02:21:28.896Z,45.20
2023-03-06T02:25:04.147Z,45.20
2023-03-06T02:28:31.142Z,49.30
2023-03-06T02:31:59.821Z,48.70
2023-03-06T02:35:30.495Z,49.60
2023-03-06T02:38:58.904Z,45.00
2023-03-06T02:42:30.140Z,42.10
2023-03-06T02:45:57.682Z,54.30
2023-03-06T02:49:26.512Z,48.80
2023-03-06T02:52:53.924Z,46.00
2023-03-06T02:56:21.162Z,42.80
2023-03-06T02:59:48.396Z,41.90
2023-03-06T03:03:16.196Z,42.60
2023-03-06T03:06:42.902Z,44.50
2023-03-06T03:10:13.162Z,44.30
2023-03-06T03:13:40.897Z,42.90
2023-03-06T03:17:10.640Z,36.40
2023-03-06T03:20:38.427Z,40.00
2023-03-06T03:24:06.398Z,50.00
2023-03-06T03:27:33.339Z,44.20
2023-03-06T03:31:03.431Z,42.60
2023-03-06T03:34:31.316Z,42.50
2023-03-06T03:37:58.622Z,40.30
2023-03-06T03:41:25.514Z,43.70
2023-03-06T03:44:52.009Z,43.50
2023-03-06T03:48:20.043Z,42.40
2023-03-06T03:51:47.169Z,39.50
2023-03-06T03:55:15.324Z,48.00
2023-03-06T03:58:42.625Z,44.90
2023-03-06T04:02:09.874Z,41.90
2023-03-06T04:05:42.842Z,42.90
2023-03-06T04:09:10.779Z,44.30
2023-03-06T04:12:39.201Z,46.30
2023-03-06T04:16:07.042Z,44.20
2023-03-06T04:19:35.392Z,41.20
2023-03-06T04:23:03.486Z,39.10
2023-03-06T04:26:31.356Z,37.80
2023-03-06T04:29:58.658Z,37.40
2023-03-06T04:33:25.749Z,38.80
2023-03-06T04:36:53.755Z,41.70
2023-03-06T04:40:23.781Z,41.60
2023-03-06T04:43:50.445Z,42.60
2023-03-06T04:47:19.064Z,39.90
2023-03-06T04:50:46.110Z,38.90
2023-03-06T04:54:12.934Z,41.50
2023-03-06T04:57:40.954Z,46.10
2023-03-06T05:01:08.243Z,43.20
2023-03-06T05:04:35.150Z,41.80
2023-03-06T05:08:02.144Z,43.00
2023-03-06T05:11:29.259Z,34.60
2023-03-06T05:14:55.859Z,37.40
2023-03-06T05:18:23.393Z,38.20
2023-03-06T05:21:50.337Z,36.40
2023-03-06T05:25:17.055Z,33.70
2023-03-06T05:28:44.074Z,41.70
2023-03-06T05:32:11.677Z,34.70
2023-03-06T05:35:38.876Z,38.00
2023-03-06T05:39:06.571Z,40.50
2023-03-06T05:42:35.151Z,39.20
2023-03-06T05:46:08.194Z,38.90
2023-03-06T05:49:37.287Z,28.50
2023-03-06T05:53:05.257Z,39.20
2023-03-06T05:56:32.244Z,34.20
2023-03-06T05:59:58.968Z,38.50
2023-03-06T06:03:25.667Z,38.20
2023-03-06T06:06:58.300Z,37.50
2023-03-06T06:10:24.779Z,38.00
2023-03-06T06:13:53.023Z,34.20
2023-03-06T06:17:20.629Z,34.80
2023-03-06T06:20:47.590Z,34.40
2023-03-06T06:24:15.155Z,40.60
2023-03-06T06:27:42.166Z,37.50
2023-03-06T06:31:13.746Z,40.20
2023-03-06T06:34:40.626Z,35.60
2023-03-06T06:38:07.461Z,39.70
2023-03-06T06:41:51.019Z,35.80
2023-03-06T06:45:20.678Z,41.10
2023-03-06T06:48:48.903Z,39.40
2023-03-06T06:52:16.162Z,50.60
2023-03-06T06:55:43.168Z,59.70
2023-03-06T06:59:16.697Z,46.80
2023-03-06T07:02:44.044Z,46.40
2023-03-06T07:06:11.494Z,47.30
2023-03-06T07:09:40.030Z,51.10
2023-03-06T07:13:06.623Z,46.20
2023-03-06T07:16:33.634Z,44.60
2023-03-06T07:20:00.894Z,45.00
2023-03-06T07:23:29.036Z,47.40
2023-03-06T07:26:57.226Z,40.40
2023-03-06T07:30:37.160Z,54.80
2023-03-06T07:34:14.977Z,51.00
2023-03-06T07:37:44.716Z,44.80
2023-03-06T07:41:14.777Z,48.90
2023-03-06T07:44:42.237Z,41.20
2023-03-06T07:48:10.525Z,56.50
2023-03-06T07:51:38.232Z,59.00
2023-03-06T07:55:07.559Z,59.40
2023-03-06T07:58:35.215Z,69.40
2023-03-06T08:02:02.934Z,171.20
2023-03-06T08:05:32.132Z,94.90
2023-03-06T08:08:59.453Z,77.00
2023-03-06T08:12:26.184Z,87.60
2023-03-06T08:15:53.042Z,57.10
2023-03-06T08:19:20.331Z,51.10
2023-03-06T08:22:50.466Z,63.10
2023-03-06T08:26:19.364Z,69.60
2023-03-06T08:29:46.230Z,88.40
2023-03-06T08:33:12.996Z,73.40
2023-03-06T08:36:40.199Z,64.30
2023-03-06T08:40:08.013Z,94.50
2023-03-06T08:43:36.565Z,59.90
2023-03-06T08:47:05.982Z,74.00
2023-03-06T08:50:32.886Z,89.10
2023-03-06T08:54:00.339Z,63.80
2023-03-06T08:57:27.202Z,52.00
2023-03-06T09:00:54.385Z,55.90
2023-03-06T09:04:20.998Z,50.40
2023-03-06T09:07:47.655Z,57.20
2023-03-06T09:11:16.129Z,59.30
2023-03-06T09:14:43.158Z,65.60
2023-03-06T09:18:09.967Z,49.60
2023-03-06T09:21:36.688Z,54.10
2023-03-06T09:25:05.177Z,53.10
2023-03-06T09:28:32.541Z,88.90
2023-03-06T09:32:00.208Z,57.10
2023-03-06T09:35:27.102Z,48.20
2023-03-06T09:38:53.951Z,42.10
2023-03-06T09:42:23.933Z,41.60
2023-03-06T09:45:50.898Z,39.70
2023-03-06T09:50:00.978Z,39.10
2023-03-06T09:53:40.840Z,36.40
2023-03-06T09:57:15.816Z,42.20
2023-03-06T10:00:48.416Z,41.60
2023-03-06T10:04:32.881Z,48.20
2023-03-06T10:08:03.319Z,50.00
2023-03-06T10:11:38.219Z,50.50
2023-03-06T10:15:15.611Z,55.30
2023-03-06T10:18:43.520Z,57.30
2023-03-06T10:22:27.488Z,49.80
2023-03-06T10:26:01.181Z,52.80
2023-03-06T10:30:01.732Z,48.30
2023-03-06T10:33:43.655Z,39.40
2023-03-06T10:37:20.104Z,38.00
2023-03-06T10:40:55.506Z,37.20
2023-03-06T10:44:27.643Z,41.80
2023-03-06T10:48:13.159Z,37.30
2023-03-06T10:51:39.486Z,35.00
2023-03-06T10:55:29.410Z,30.20
2023-03-06T10:59:08.768Z,39.70
2023-03-06T11:02:38.789Z,37.90
2023-03-06T11:06:13.443Z,36.70
2023-03-06T11:09:40.413Z,31.90
2023-03-06T11:13:22.623Z,29.40
2023-03-06T11:16:54.605Z,31.90
2023-03-06T11:20:23.688Z,32.10
2023-03-06T11:23:51.700Z,33.80
2023-03-06T11:27:30.575Z,28.80
2023-03-06T11:31:08.502Z,33.70
2023-03-06T11:34:44.057Z,28.50
2023-03-06T11:38:18.139Z,29.50
2023-03-06T11:41:54.211Z,35.10
2023-03-06T11:45:32.103Z,34.10
2023-03-06T11:49:07.053Z,32.30
2023-03-06T11:52:45.078Z,29.30
2023-03-06T11:56:26.564Z,31.60
2023-03-06T12:00:23.378Z,26.70
2023-03-06T12:04:08.544Z,28.60
2023-03-06T12:07:37.586Z,33.70
2023-03-06T12:11:12.874Z,24.00
2023-03-06T12:14:54.340Z,24.30
2023-03-06T12:18:34.760Z,25.40
2023-03-06T12:22:17.373Z,29.70
2023-03-06T12:25:49.810Z,32.50
2023-03-06T12:29:36.560Z,31.00
2023-03-06T12:33:12.960Z,27.60
2023-03-06T12:37:01.049Z,31.20
2023-03-06T12:40:59.336Z,28.50
2023-03-06T12:44:57.173Z,28.30
2023-03-06T12:48:28.339Z,23.80
2023-03-06T12:51:55.935Z,25.60
2023-03-06T12:55:25.992Z,27.90
2023-03-06T12:58:57.682Z,22.80
2023-03-06T13:02:42.947Z,27.00
2023-03-06T13:06:23.780Z,22.20
2023-03-06T13:10:07.855Z,23.00
2023-03-06T13:13:43.241Z,26.30
2023-03-06T13:17:33.865Z,27.90
2023-03-06T13:21:00.978Z,30.60
2023-03-06T13:24:28.683Z,26.50
2023-03-06T13:28:06.097Z,28.90
2023-03-06T13:32:06.091Z,25.30
2023-03-06T13:35:55.157Z,24.30
2023-03-06T13:39:22.140Z,27.20
2023-03-06T13:43:15.811Z,24.80
2023-03-06T13:46:44.010Z,27.10
2023-03-06T13:50:28.763Z,27.20
2023-03-06T13:54:30.452Z,28.30
2023-03-06T13:58:15.516Z,31.80
2023-03-06T14:01:58.060Z,37.10
2023-03-06T14:05:25.955Z,30.20
2023-03-06T14:08:52.760Z,26.40
2023-03-06T14:12:26.124Z,24.10
2023-03-06T14:19:20.538Z,23.50
2023-03-06T14:22:47.518Z,25.90
2023-03-06T14:26:19.035Z,24.80
2023-03-06T14:29:49.035Z,32.30
2023-03-06T14:33:27.293Z,24.50
2023-03-06T14:36:56.394Z,25.70
2023-03-06T14:40:31.571Z,27.60
2023-03-06T14:44:11.043Z,29.60
2023-03-06T14:47:38.786Z,28.20
2023-03-06T14:51:05.997Z,28.10
2023-03-06T14:54:38.227Z,29.10
2023-03-06T14:58:13.176Z,28.10
2023-03-06T15:01:42.761Z,32.00
2023-03-06T15:05:21.229Z,28.40
2023-03-06T15:08:57.926Z,30.50
2023-03-06T15:12:40.649Z,32.00
2023-03-06T15:16:10.167Z,31.70
2023-03-06T15:19:45.195Z,30.60
2023-03-06T15:23:21.779Z,34.10
2023-03-06T15:26:57.096Z,26.90
2023-03-06T15:30:39.711Z,27.80
2023-03-06T15:34:28.951Z,30.30
2023-03-06T15:37:55.872Z,29.10
2023-03-06T15:41:30.713Z,27.30
2023-03-06T15:45:03.234Z,29.70
2023-03-06T15:48:31.947Z,28.90
2023-03-06T15:51:59.212Z,28.60
2023-03-06T15:55:29.827Z,26.70
2023-03-06T15:58:59.054Z,25.20
2023-03-06T16:02:26.947Z,22.60
2023-03-06T16:05:53.731Z,19.00
2023-03-06T16:09:20.833Z,26.30
2023-03-06T16:12:51.371Z,24.30
2023-03-06T16:16:24.201Z,29.50
2023-03-06T16:19:51.174Z,25.60
2023-03-06T16:23:18.360Z,28.90
2023-03-06T16:26:47.368Z,25.80
2023-03-06T16:30:20.867Z,27.50
2023-03-06T16:33:48.693Z,28.90
2023-03-06T16:37:18.028Z,32.90
2023-03-06T16:40:44.911Z,36.00
2023-03-06T16:44:12.108Z,29.80
2023-03-06T16:47:38.844Z,31.70
2023-03-06T16:51:11.266Z,36.60
2023-03-06T16:54:38.731Z,34.50
2023-03-06T16:58:06.997Z,37.70
2023-03-06T17:01:35.256Z,33.60
2023-03-06T17:05:07.943Z,36.80
2023-03-06T17:08:35.128Z,40.00
2023-03-06T17:12:06.024Z,36.70
2023-03-06T17:15:34.405Z,42.90
2023-03-06T17:19:07.467Z,46.90
2023-03-06T17:22:38.950Z,48.70
2023-03-06T17:26:13.513Z,53.10
2023-03-06T17:29:45.724Z,42.60
2023-03-06T17:33:17.133Z,38.40
2023-03-06T17:36:45.675Z,40.60
2023-03-06T17:40:20.242Z,28.40
2023-03-06T17:43:47.114Z,34.30
2023-03-06T17:47:14.430Z,32.60
2023-03-06T17:50:41.877Z,34.50
2023-03-06T17:54:09.754Z,41.50
2023-03-06T17:57:37.838Z,48.60
2023-03-06T18:01:14.100Z,58.20
2023-03-06T18:04:43.421Z,92.50
2023-03-06T18:08:10.979Z,95.90
2023-03-06T18:11:38.442Z,87.80
2023-03-06T18:15:06.005Z,103.70
2023-03-06T18:18:33.785Z,89.20
2023-03-06T18:22:01.609Z,88.30
2023-03-06T18:25:28.709Z,89.50
2023-03-06T18:28:58.434Z,74.80
2023-03-06T18:32:26.540Z,72.70
2023-03-06T18:35:53.843Z,73.80
2023-03-06T18:39:21.689Z,72.90
2023-03-06T18:42:49.316Z,84.70
2023-03-06T18:46:16.162Z,82.80
2023-03-06T18:49:45.274Z,85.90
2023-03-06T18:53:15.107Z,93.70
2023-03-06T18:56:44.883Z,91.00
2023-03-06T19:00:20.171Z,89.00
2023-03-06T19:03:48.998Z,87.30
2023-03-06T19:07:21.960Z,91.30
2023-03-06T19:14:19.644Z,82.10
2023-03-06T19:17:49.726Z,78.50
2023-03-06T19:21:21.056Z,75.40
2023-03-06T19:24:55.368Z,77.80
2023-03-06T19:28:22.737Z,70.80
2023-03-06T19:31:51.582Z,69.50
2023-03-06T19:35:22.264Z,69.50
2023-03-06T19:38:53.076Z,72.40
2023-03-06T19:42:22.441Z,76.10
2023-03-06T19:45:49.940Z,92.60
2023-03-06T19:49:23.132Z,101.00
2023-03-06T19:52:50.238Z,110.60
2023-03-06T19:56:20.509Z,122.20
2023-03-06T19:59:50.301Z,120.80
2023-03-06T20:03:18.042Z,102.50
2023-03-06T20:06:47.402Z,106.50
2023-03-06T20:10:16.965Z,110.10
2023-03-06T20:13:47.686Z,98.80
2023-03-06T20:17:20.711Z,95.30
2023-03-06T20:21:02.514Z,82.30
2023-03-06T20:24:29.803Z,91.40
2023-03-06T20:28:03.122Z,95.20
2023-03-06T20:31:34.836Z,97.80
2023-03-06T20:35:11.146Z,93.20
2023-03-06T20:38:39.402Z,91.50
2023-03-06T20:42:09.058Z,81.60
2023-03-06T20:45:39.172Z,78.90
2023-03-06T20:49:09.757Z,76.10
2023-03-06T20:52:43.060Z,69.30
2023-03-06T20:56:15.760Z,73.20
2023-03-06T20:59:52.564Z,76.40
2023-03-06T21:03:20.712Z,71.90
2023-03-06T21:06:50.156Z,68.60
2023-03-06T21:10:26.286Z,68.30
2023-03-06T21:13:58.125Z,67.40
2023-03-06T21:17:25.908Z,66.00
2023-03-06T21:20:54.806Z,70.70
2023-03-06T21:24:23.025Z,73.70
2023-03-06T21:27:54.242Z,69.70
2023-03-06T21:31:23.395Z,77.00
2023-03-06T21:34:51.970Z,78.10
2023-03-06T21:38:19.164Z,81.90
2023-03-06T21:41:50.085Z,80.00
2023-03-06T21:45:18.530Z,83.80
2023-03-06T21:48:48.255Z,85.80
2023-03-06T21:52:15.040Z,77.50
2023-03-06T21:55:43.582Z,81.20
2023-03-06T21:59:13.348Z,84.70
2023-03-06T22:02:41.836Z,90.20
2023-03-06T22:06:19.489Z,76.30
2023-03-06T22:09:56.126Z,77.30
2023-03-06T22:13:27.148Z,86.30
2023-03-06T22:17:05.184Z,83.60
2023-03-06T22:20:33.557Z,98.80
2023-03-06T22:24:03.742Z,118.00
2023-03-06T22:27:35.359Z,118.00
2023-03-06T22:31:11.599Z,120.30
2023-03-06T22:34:42.799Z,116.00
2023-03-06T22:38:16.536Z,117.80
2023-03-06T22:41:49.877Z,114.00
2023-03-06T22:45:20.647Z,107.10
2023-03-06T22:48:50.146Z,115.10
2023-03-06T22:52:19.760Z,119.60
2023-03-06T22:55:50.247Z,113.40
2023-03-06T22:59:18.973Z,128.10
2023-03-06T23:02:47.494Z,123.60
2023-03-06T23:06:17.137Z,132.90
2023-03-06T23:09:44.273Z,126.30
2023-03-06T23:13:30.120Z,138.50
2023-03-06T23:17:17.398Z,151.80
2023-03-06T23:21:15.733Z,139.50
2023-03-06T23:25:02.847Z,149.40
2023-03-06T23:28:33.440Z,138.70
2023-03-06T23:32:01.740Z,134.10
2023-03-06T23:35:30.314Z,126.70
2023-03-06T23:38:59.270Z,125.90
2023-03-06T23:42:26.736Z,122.90
2023-03-06T23:45:59.185Z,115.70
2023-03-06T23:49:28.494Z,107.80
2023-03-06T23:53:03.117Z,108.50
2023-03-06T23:56:34.177Z,113.70
